sensor_id;sensor_type;location;lat;lon;timestamp;temperature;humidity
15900;DHT22;8048;50.644;6.184;2023-03-01T00:01:03;-2.20;94.90
15900;DHT22;8048;50.644;6.184;2023-03-01T00:03:28;-2.20;94.80
15900;DHT22;8048;50.644;6.184;2023-03-01T00:05:54;-2.30;94.60
15900;DHT22;8048;50.644;6.184;2023-03-01T00:08:19;-2.30;94.40
15900;DHT22;8048;50.644;6.184;2023-03-01T00:10:45;-2.30;94.50
15900;DHT22;8048;50.644;6.184;2023-03-01T00:13:10;-2.30;94.50
15900;DHT22;8048;50.644;6.184;2023-03-01T00:15:40;-2.40;94.30
15900;DHT22;8048;50.644;6.184;2023-03-01T00:18:07;-2.40;94.10
15900;DHT22;8048;50.644;6.184;2023-03-01T00:20:33;-2.40;94.20
15900;DHT22;8048;50.644;6.184;2023-03-01T00:22:59;-2.50;94.20
15900;DHT22;8048;50.644;6.184;2023-03-01T00:25:24;-2.60;94.10
15900;DHT22;8048;50.644;6.184;2023-03-01T00:27:50;-2.60;94.30
15900;DHT22;8048;50.644;6.184;2023-03-01T00:30:15;-2.60;94.50
15900;DHT22;8048;50.644;6.184;2023-03-01T00:32:41;-2.50;94.90
15900;DHT22;8048;50.644;6.184;2023-03-01T00:35:07;-2.50;94.90
15900;DHT22;8048;50.644;6.184;2023-03-01T00:37:32;-2.50;94.80
15900;DHT22;8048;50.644;6.184;2023-03-01T00:39:58;-2.50;94.70
15900;DHT22;8048;50.644;6.184;2023-03-01T00:42:23;-2.50;94.70
15900;DHT22;8048;50.644;6.184;2023-03-01T00:44:49;-2.50;94.60
15900;DHT22;8048;50.644;6.184;2023-03-01T00:47:14;-2.50;94.40
15900;DHT22;8048;50.644;6.184;2023-03-01T00:49:40;-2.50;94.40
15900;DHT22;8048;50.644;6.184;2023-03-01T00:52:06;-2.60;94.40
15900;DHT22;8048;50.644;6.184;2023-03-01T00:54:31;-2.60;94.40
15900;DHT22;8048;50.644;6.184;2023-03-01T00:56:57;-2.50;94.90
15900;DHT22;8048;50.644;6.184;2023-03-01T00:59:22;-2.50;94.90
15900;DHT22;8048;50.644;6.184;2023-03-01T01:01:48;-2.50;94.80
15900;DHT22;8048;50.644;6.184;2023-03-01T01:04:14;-2.50;94.70
15900;DHT22;8048;50.644;6.184;2023-03-01T01:06:40;-2.40;94.60
15900;DHT22;8048;50.644;6.184;2023-03-01T01:09:12;-2.50;94.30
15900;DHT22;8048;50.644;6.184;2023-03-01T01:11:45;-2.50;94.30
15900;DHT22;8048;50.644;6.184;2023-03-01T01:14:12;-2.50;94.40
15900;DHT22;8048;50.644;6.184;2023-03-01T01:16:37;-2.50;94.40
15900;DHT22;8048;50.644;6.184;2023-03-01T01:19:03;-2.60;94.40
15900;DHT22;8048;50.644;6.184;2023-03-01T01:21:29;-2.60;94.60
15900;DHT22;8048;50.644;6.184;2023-03-01T01:23:56;-2.70;94.50
15900;DHT22;8048;50.644;6.184;2023-03-01T01:26:27;-2.70;94.60
15900;DHT22;8048;50.644;6.184;2023-03-01T01:28:53;-2.70;94.80
15900;DHT22;8048;50.644;6.184;2023-03-01T01:31:19;-2.70;94.90
15900;DHT22;8048;50.644;6.184;2023-03-01T01:33:45;-2.70;95.00
15900;DHT22;8048;50.644;6.184;2023-03-01T01:36:11;-2.70;95.20
15900;DHT22;8048;50.644;6.184;2023-03-01T01:38:38;-2.70;95.40
15900;DHT22;8048;50.644;6.184;2023-03-01T01:41:05;-2.80;95.50
15900;DHT22;8048;50.644;6.184;2023-03-01T01:43:38;-2.80;95.60
15900;DHT22;8048;50.644;6.184;2023-03-01T01:46:06;-2.80;95.50
15900;DHT22;8048;50.644;6.184;2023-03-01T01:48:41;-2.80;95.50
15900;DHT22;8048;50.644;6.184;2023-03-01T01:51:14;-2.90;95.50
15900;DHT22;8048;50.644;6.184;2023-03-01T01:53:41;-2.80;95.60
15900;DHT22;8048;50.644;6.184;2023-03-01T01:56:08;-2.90;95.30
15900;DHT22;8048;50.644;6.184;2023-03-01T01:58:35;-2.90;95.20
15900;DHT22;8048;50.644;6.184;2023-03-01T02:01:03;-2.80;95.30
15900;DHT22;8048;50.644;6.184;2023-03-01T02:03:31;-2.90;95.20
15900;DHT22;8048;50.644;6.184;2023-03-01T02:06:03;-3.00;94.90
15900;DHT22;8048;50.644;6.184;2023-03-01T02:08:32;-3.00;94.80
15900;DHT22;8048;50.644;6.184;2023-03-01T02:10:59;-3.10;94.90
15900;DHT22;8048;50.644;6.184;2023-03-01T02:13:26;-3.10;95.10
15900;DHT22;8048;50.644;6.184;2023-03-01T02:15:52;-3.20;95.30
15900;DHT22;8048;50.644;6.184;2023-03-01T02:18:21;-3.20;95.80
15900;DHT22;8048;50.644;6.184;2023-03-01T02:23:24;-3.20;95.50
15900;DHT22;8048;50.644;6.184;2023-03-01T02:26:07;-3.20;95.50
15900;DHT22;8048;50.644;6.184;2023-03-01T02:28:37;-3.30;95.40
15900;DHT22;8048;50.644;6.184;2023-03-01T02:31:05;-3.30;95.40
15900;DHT22;8048;50.644;6.184;2023-03-01T02:33:51;-3.30;95.20
15900;DHT22;8048;50.644;6.184;2023-03-01T02:36:21;-3.30;95.30
15900;DHT22;8048;50.644;6.184;2023-03-01T02:38:48;-3.30;95.20
15900;DHT22;8048;50.644;6.184;2023-03-01T02:41:16;-3.30;95.30
15900;DHT22;8048;50.644;6.184;2023-03-01T02:43:44;-3.30;95.60
15900;DHT22;8048;50.644;6.184;2023-03-01T02:46:18;-3.30;95.60
15900;DHT22;8048;50.644;6.184;2023-03-01T02:48:56;-3.30;95.40
15900;DHT22;8048;50.644;6.184;2023-03-01T02:54:47;-3.50;95.30
15900;DHT22;8048;50.644;6.184;2023-03-01T02:57:14;-3.60;95.10
15900;DHT22;8048;50.644;6.184;2023-03-01T02:59:41;-3.60;95.30
15900;DHT22;8048;50.644;6.184;2023-03-01T03:02:23;-3.60;95.40
15900;DHT22;8048;50.644;6.184;2023-03-01T03:05:13;-3.60;95.70
15900;DHT22;8048;50.644;6.184;2023-03-01T03:07:41;-3.60;95.70
15900;DHT22;8048;50.644;6.184;2023-03-01T03:10:13;-3.60;95.50
15900;DHT22;8048;50.644;6.184;2023-03-01T03:12:40;-3.60;95.50
15900;DHT22;8048;50.644;6.184;2023-03-01T03:15:08;-3.70;95.40
15900;DHT22;8048;50.644;6.184;2023-03-01T03:17:36;-3.60;95.50
15900;DHT22;8048;50.644;6.184;2023-03-01T03:20:04;-3.60;95.50
15900;DHT22;8048;50.644;6.184;2023-03-01T03:22:31;-3.60;95.40
15900;DHT22;8048;50.644;6.184;2023-03-01T03:24:59;-3.60;95.30
15900;DHT22;8048;50.644;6.184;2023-03-01T03:27:24;-3.70;95.10
15900;DHT22;8048;50.644;6.184;2023-03-01T03:29:50;-3.70;95.10
15900;DHT22;8048;50.644;6.184;2023-03-01T03:32:15;-3.80;95.20
15900;DHT22;8048;50.644;6.184;2023-03-01T03:34:41;-3.80;95.40
15900;DHT22;8048;50.644;6.184;2023-03-01T03:37:07;-3.80;95.40
15900;DHT22;8048;50.644;6.184;2023-03-01T03:39:52;-3.80;95.60
15900;DHT22;8048;50.644;6.184;2023-03-01T03:42:20;-3.90;95.30
15900;DHT22;8048;50.644;6.184;2023-03-01T03:44:46;-3.90;95.50
15900;DHT22;8048;50.644;6.184;2023-03-01T03:47:12;-3.80;95.80
15900;DHT22;8048;50.644;6.184;2023-03-01T03:49:37;-3.80;96.00
15900;DHT22;8048;50.644;6.184;2023-03-01T03:52:03;-3.90;95.90
15900;DHT22;8048;50.644;6.184;2023-03-01T03:54:28;-3.90;95.80
15900;DHT22;8048;50.644;6.184;2023-03-01T03:56:54;-3.90;95.80
15900;DHT22;8048;50.644;6.184;2023-03-01T03:59:19;-3.90;95.90
15900;DHT22;8048;50.644;6.184;2023-03-01T04:01:45;-3.90;96.00
15900;DHT22;8048;50.644;6.184;2023-03-01T04:04:10;-3.90;95.90
15900;DHT22;8048;50.644;6.184;2023-03-01T04:06:36;-3.90;95.90
15900;DHT22;8048;50.644;6.184;2023-03-01T04:09:01;-4.00;95.80
15900;DHT22;8048;50.644;6.184;2023-03-01T04:11:27;-3.90;95.70
15900;DHT22;8048;50.644;6.184;2023-03-01T04:13:55;-4.00;95.50
15900;DHT22;8048;50.644;6.184;2023-03-01T04:16:21;-4.00;95.30
15900;DHT22;8048;50.644;6.184;2023-03-01T04:18:47;-4.10;95.20
15900;DHT22;8048;50.644;6.184;2023-03-01T04:21:12;-4.10;95.50
15900;DHT22;8048;50.644;6.184;2023-03-01T04:23:38;-4.20;95.60
15900;DHT22;8048;50.644;6.184;2023-03-01T04:26:06;-4.10;95.80
15900;DHT22;8048;50.644;6.184;2023-03-01T04:28:34;-4.10;95.80
15900;DHT22;8048;50.644;6.184;2023-03-01T04:31:06;-4.10;95.90
15900;DHT22;8048;50.644;6.184;2023-03-01T04:33:48;-4.20;95.80
15900;DHT22;8048;50.644;6.184;2023-03-01T04:36:15;-4.20;95.80
15900;DHT22;8048;50.644;6.184;2023-03-01T04:38:42;-4.20;95.80
15900;DHT22;8048;50.644;6.184;2023-03-01T04:41:10;-4.20;95.80
15900;DHT22;8048;50.644;6.184;2023-03-01T04:43:36;-4.30;95.90
15900;DHT22;8048;50.644;6.184;2023-03-01T04:46:04;-4.30;96.00
15900;DHT22;8048;50.644;6.184;2023-03-01T04:48:31;-4.30;95.90
15900;DHT22;8048;50.644;6.184;2023-03-01T04:50:59;-4.20;96.00
15900;DHT22;8048;50.644;6.184;2023-03-01T04:53:25;-4.30;96.00
15900;DHT22;8048;50.644;6.184;2023-03-01T04:55:50;-4.30;95.90
15900;DHT22;8048;50.644;6.184;2023-03-01T04:58:16;-4.30;95.90
15900;DHT22;8048;50.644;6.184;2023-03-01T05:00:42;-4.30;95.80
15900;DHT22;8048;50.644;6.184;2023-03-01T05:03:08;-4.30;95.80
15900;DHT22;8048;50.644;6.184;2023-03-01T05:05:36;-4.30;95.50
15900;DHT22;8048;50.644;6.184;2023-03-01T05:08:05;-4.40;95.20
15900;DHT22;8048;50.644;6.184;2023-03-01T05:10:32;-4.40;95.20
15900;DHT22;8048;50.644;6.184;2023-03-01T05:12:59;-4.50;95.40
15900;DHT22;8048;50.644;6.184;2023-03-01T05:15:26;-4.50;95.60
15900;DHT22;8048;50.644;6.184;2023-03-01T05:17:54;-4.50;95.70
15900;DHT22;8048;50.644;6.184;2023-03-01T05:20:20;-4.50;95.60
15900;DHT22;8048;50.644;6.184;2023-03-01T05:22:48;-4.60;95.50
15900;DHT22;8048;50.644;6.184;2023-03-01T05:25:14;-4.70;95.70
15900;DHT22;8048;50.644;6.184;2023-03-01T05:27:39;-4.70;95.80
15900;DHT22;8048;50.644;6.184;2023-03-01T05:30:05;-4.70;95.70
15900;DHT22;8048;50.644;6.184;2023-03-01T05:32:45;-4.70;95.90
15900;DHT22;8048;50.644;6.184;2023-03-01T05:35:12;-4.70;96.00
15900;DHT22;8048;50.644;6.184;2023-03-01T05:37:40;-4.70;95.90
15900;DHT22;8048;50.644;6.184;2023-03-01T05:40:07;-4.70;95.80
15900;DHT22;8048;50.644;6.184;2023-03-01T05:42:44;-4.70;95.80
15900;DHT22;8048;50.644;6.184;2023-03-01T05:45:10;-4.70;95.70
15900;DHT22;8048;50.644;6.184;2023-03-01T05:47:35;-4.70;95.70
15900;DHT22;8048;50.644;6.184;2023-03-01T05:50:02;-4.80;95.50
15900;DHT22;8048;50.644;6.184;2023-03-01T05:52:27;-4.80;95.40
15900;DHT22;8048;50.644;6.184;2023-03-01T05:54:53;-4.80;95.30
15900;DHT22;8048;50.644;6.184;2023-03-01T05:57:18;-4.80;95.40
15900;DHT22;8048;50.644;6.184;2023-03-01T05:59:45;-4.80;95.40
15900;DHT22;8048;50.644;6.184;2023-03-01T06:02:10;-4.80;95.00
15900;DHT22;8048;50.644;6.184;2023-03-01T06:04:36;-4.80;95.00
15900;DHT22;8048;50.644;6.184;2023-03-01T06:07:01;-4.90;95.10
15900;DHT22;8048;50.644;6.184;2023-03-01T06:09:27;-4.90;95.10
15900;DHT22;8048;50.644;6.184;2023-03-01T06:11:53;-4.90;95.00
15900;DHT22;8048;50.644;6.184;2023-03-01T06:14:18;-5.00;94.90
15900;DHT22;8048;50.644;6.184;2023-03-01T06:16:46;-4.90;95.10
15900;DHT22;8048;50.644;6.184;2023-03-01T06:19:11;-4.90;94.70
15900;DHT22;8048;50.644;6.184;2023-03-01T06:21:37;-5.00;94.70
15900;DHT22;8048;50.644;6.184;2023-03-01T06:24:02;-5.00;94.90
15900;DHT22;8048;50.644;6.184;2023-03-01T06:26:28;-5.00;94.90
15900;DHT22;8048;50.644;6.184;2023-03-01T06:28:53;-5.00;95.00
15900;DHT22;8048;50.644;6.184;2023-03-01T06:31:19;-5.00;94.90
15900;DHT22;8048;50.644;6.184;2023-03-01T06:33:44;-5.00;94.90
15900;DHT22;8048;50.644;6.184;2023-03-01T06:36:10;-5.10;94.90
15900;DHT22;8048;50.644;6.184;2023-03-01T06:38:36;-5.00;95.10
15900;DHT22;8048;50.644;6.184;2023-03-01T06:41:01;-5.00;95.10
15900;DHT22;8048;50.644;6.184;2023-03-01T06:43:27;-5.00;95.20
15900;DHT22;8048;50.644;6.184;2023-03-01T06:45:52;-5.00;95.40
15900;DHT22;8048;50.644;6.184;2023-03-01T06:48:18;-5.00;95.30
15900;DHT22;8048;50.644;6.184;2023-03-01T06:50:43;-5.00;95.20
15900;DHT22;8048;50.644;6.184;2023-03-01T06:53:09;-5.00;95.20
15900;DHT22;8048;50.644;6.184;2023-03-01T06:55:34;-5.00;95.20
15900;DHT22;8048;50.644;6.184;2023-03-01T06:58:01;-5.00;95.40
15900;DHT22;8048;50.644;6.184;2023-03-01T07:00:27;-4.90;95.50
15900;DHT22;8048;50.644;6.184;2023-03-01T07:02:53;-4.90;95.80
15900;DHT22;8048;50.644;6.184;2023-03-01T07:05:19;-4.90;95.90
15900;DHT22;8048;50.644;6.184;2023-03-01T07:07:44;-4.90;96.00
15900;DHT22;8048;50.644;6.184;2023-03-01T07:10:10;-4.80;96.10
15900;DHT22;8048;50.644;6.184;2023-03-01T07:12:36;-4.80;96.10
15900;DHT22;8048;50.644;6.184;2023-03-01T07:15:02;-4.70;96.20
15900;DHT22;8048;50.644;6.184;2023-03-01T07:17:27;-4.70;96.40
15900;DHT22;8048;50.644;6.184;2023-03-01T07:19:53;-4.60;96.80
15900;DHT22;8048;50.644;6.184;2023-03-01T07:22:18;-4.60;96.80
15900;DHT22;8048;50.644;6.184;2023-03-01T07:24:44;-4.50;97.00
15900;DHT22;8048;50.644;6.184;2023-03-01T07:27:10;-4.50;97.10
15900;DHT22;8048;50.644;6.184;2023-03-01T07:29:36;-4.40;97.40
15900;DHT22;8048;50.644;6.184;2023-03-01T07:32:05;-4.30;97.70
15900;DHT22;8048;50.644;6.184;2023-03-01T07:34:31;-4.20;98.00
15900;DHT22;8048;50.644;6.184;2023-03-01T07:36:56;-4.20;98.20
15900;DHT22;8048;50.644;6.184;2023-03-01T07:39:22;-4.00;98.50
15900;DHT22;8048;50.644;6.184;2023-03-01T07:41:50;-3.90;98.60
15900;DHT22;8048;50.644;6.184;2023-03-01T07:44:16;-3.80;98.80
15900;DHT22;8048;50.644;6.184;2023-03-01T07:46:43;-3.60;99.10
15900;DHT22;8048;50.644;6.184;2023-03-01T07:49:08;-3.50;99.20
15900;DHT22;8048;50.644;6.184;2023-03-01T07:51:34;-3.40;99.20
15900;DHT22;8048;50.644;6.184;2023-03-01T07:54:00;-3.30;99.40
15900;DHT22;8048;50.644;6.184;2023-03-01T07:56:25;-3.10;99.50
15900;DHT22;8048;50.644;6.184;2023-03-01T07:58:51;-3.00;99.30
15900;DHT22;8048;50.644;6.184;2023-03-01T08:01:19;-2.90;99.20
15900;DHT22;8048;50.644;6.184;2023-03-01T08:03:44;-2.80;99.00
15900;DHT22;8048;50.644;6.184;2023-03-01T08:06:11;-2.70;98.80
15900;DHT22;8048;50.644;6.184;2023-03-01T08:08:38;-2.60;98.70
15900;DHT22;8048;50.644;6.184;2023-03-01T08:11:05;-2.40;98.50
15900;DHT22;8048;50.644;6.184;2023-03-01T08:13:32;-2.20;98.40
15900;DHT22;8048;50.644;6.184;2023-03-01T08:16:01;-2.10;98.20
15900;DHT22;8048;50.644;6.184;2023-03-01T08:18:27;-2.00;98.20
15900;DHT22;8048;50.644;6.184;2023-03-01T08:20:53;-1.80;98.30
15900;DHT22;8048;50.644;6.184;2023-03-01T08:23:18;-1.60;98.60
15900;DHT22;8048;50.644;6.184;2023-03-01T08:25:44;-1.40;98.70
15900;DHT22;8048;50.644;6.184;2023-03-01T08:28:09;-1.20;98.50
15900;DHT22;8048;50.644;6.184;2023-03-01T08:30:35;-1.00;97.90
15900;DHT22;8048;50.644;6.184;2023-03-01T08:33:01;-0.70;97.60
15900;DHT22;8048;50.644;6.184;2023-03-01T08:35:26;-0.50;97.50
15900;DHT22;8048;50.644;6.184;2023-03-01T08:37:52;-0.20;97.70
15900;DHT22;8048;50.644;6.184;2023-03-01T08:40:17;0.10;97.20
15900;DHT22;8048;50.644;6.184;2023-03-01T08:42:43;0.40;97.00
15900;DHT22;8048;50.644;6.184;2023-03-01T08:45:09;0.60;94.10
15900;DHT22;8048;50.644;6.184;2023-03-01T08:47:35;0.70;92.60
15900;DHT22;8048;50.644;6.184;2023-03-01T08:50:01;0.80;92.00
15900;DHT22;8048;50.644;6.184;2023-03-01T08:52:26;1.00;92.20
15900;DHT22;8048;50.644;6.184;2023-03-01T08:54:53;1.10;91.80
15900;DHT22;8048;50.644;6.184;2023-03-01T08:57:18;1.20;91.60
15900;DHT22;8048;50.644;6.184;2023-03-01T08:59:44;1.50;92.10
15900;DHT22;8048;50.644;6.184;2023-03-01T09:02:15;1.80;91.50
15900;DHT22;8048;50.644;6.184;2023-03-01T09:04:40;2.00;90.90
15900;DHT22;8048;50.644;6.184;2023-03-01T09:07:08;2.20;90.80
15900;DHT22;8048;50.644;6.184;2023-03-01T09:09:34;2.50;89.60
15900;DHT22;8048;50.644;6.184;2023-03-01T09:12:00;2.70;88.90
15900;DHT22;8048;50.644;6.184;2023-03-01T09:14:25;3.00;86.70
15900;DHT22;8048;50.644;6.184;2023-03-01T09:16:51;3.10;85.60
15900;DHT22;8048;50.644;6.184;2023-03-01T09:19:17;3.40;88.60
15900;DHT22;8048;50.644;6.184;2023-03-01T09:21:42;3.70;86.70
15900;DHT22;8048;50.644;6.184;2023-03-01T09:24:18;4.00;83.00
15900;DHT22;8048;50.644;6.184;2023-03-01T09:26:44;4.00;80.70
15900;DHT22;8048;50.644;6.184;2023-03-01T09:29:12;4.40;83.40
15900;DHT22;8048;50.644;6.184;2023-03-01T09:31:38;4.40;79.40
15900;DHT22;8048;50.644;6.184;2023-03-01T09:34:04;4.70;81.50
15900;DHT22;8048;50.644;6.184;2023-03-01T09:36:30;4.80;79.70
15900;DHT22;8048;50.644;6.184;2023-03-01T09:38:57;4.80;76.80
15900;DHT22;8048;50.644;6.184;2023-03-01T09:47:05;4.70;74.10
15900;DHT22;8048;50.644;6.184;2023-03-01T09:49:38;4.50;75.70
15900;DHT22;8048;50.644;6.184;2023-03-01T09:54:55;4.80;74.20
15900;DHT22;8048;50.644;6.184;2023-03-01T09:57:36;5.10;77.40
15900;DHT22;8048;50.644;6.184;2023-03-01T10:00:20;5.50;79.60
15900;DHT22;8048;50.644;6.184;2023-03-01T10:02:56;5.90;74.70
15900;DHT22;8048;50.644;6.184;2023-03-01T10:10:43;6.30;73.30
15900;DHT22;8048;50.644;6.184;2023-03-01T10:13:29;6.50;69.30
15900;DHT22;8048;50.644;6.184;2023-03-01T10:16:01;6.50;67.80
15900;DHT22;8048;50.644;6.184;2023-03-01T10:18:30;6.80;70.50
15900;DHT22;8048;50.644;6.184;2023-03-01T10:23:28;6.70;67.90
15900;DHT22;8048;50.644;6.184;2023-03-01T10:29:01;7.40;66.50
15900;DHT22;8048;50.644;6.184;2023-03-01T10:34:04;6.80;64.10
15900;DHT22;8048;50.644;6.184;2023-03-01T10:36:33;7.00;71.20
15900;DHT22;8048;50.644;6.184;2023-03-01T10:39:11;7.70;66.10
15900;DHT22;8048;50.644;6.184;2023-03-01T10:41:45;7.90;64.10
15900;DHT22;8048;50.644;6.184;2023-03-01T10:44:39;7.80;60.00
15900;DHT22;8048;50.644;6.184;2023-03-01T10:47:19;7.80;65.10
15900;DHT22;8048;50.644;6.184;2023-03-01T10:50:05;8.40;64.40
15900;DHT22;8048;50.644;6.184;2023-03-01T10:52:34;9.30;65.10
15900;DHT22;8048;50.644;6.184;2023-03-01T10:57:41;9.40;58.10
15900;DHT22;8048;50.644;6.184;2023-03-01T11:02:51;9.60;59.60
15900;DHT22;8048;50.644;6.184;2023-03-01T11:05:26;10.20;61.90
15900;DHT22;8048;50.644;6.184;2023-03-01T11:07:57;10.90;63.70
15900;DHT22;8048;50.644;6.184;2023-03-01T11:10:24;11.30;58.00
15900;DHT22;8048;50.644;6.184;2023-03-01T11:12:52;11.00;57.80
15900;DHT22;8048;50.644;6.184;2023-03-01T11:15:26;10.90;56.10
15900;DHT22;8048;50.644;6.184;2023-03-01T11:17:53;11.10;55.90
15900;DHT22;8048;50.644;6.184;2023-03-01T11:20:32;11.00;54.90
15900;DHT22;8048;50.644;6.184;2023-03-01T11:23:03;10.80;56.60
15900;DHT22;8048;50.644;6.184;2023-03-01T11:25:34;10.60;55.20
15900;DHT22;8048;50.644;6.184;2023-03-01T11:28:03;10.70;54.90
15900;DHT22;8048;50.644;6.184;2023-03-01T11:33:35;11.60;55.70
15900;DHT22;8048;50.644;6.184;2023-03-01T11:36:07;11.90;54.80
15900;DHT22;8048;50.644;6.184;2023-03-01T11:38:35;12.00;54.00
15900;DHT22;8048;50.644;6.184;2023-03-01T11:41:05;12.20;55.50
15900;DHT22;8048;50.644;6.184;2023-03-01T11:43:56;12.80;55.90
15900;DHT22;8048;50.644;6.184;2023-03-01T12:11:43;16.80;55.30
15900;DHT22;8048;50.644;6.184;2023-03-01T12:17:07;17.50;49.30
15900;DHT22;8048;50.644;6.184;2023-03-01T12:23:02;17.60;47.70
15900;DHT22;8048;50.644;6.184;2023-03-01T12:25:53;17.80;51.20
15900;DHT22;8048;50.644;6.184;2023-03-01T12:34:12;18.10;50.80
15900;DHT22;8048;50.644;6.184;2023-03-01T12:36:56;17.90;49.80
15900;DHT22;8048;50.644;6.184;2023-03-01T12:42:31;17.90;50.70
15900;DHT22;8048;50.644;6.184;2023-03-01T12:50:21;18.00;47.80
15900;DHT22;8048;50.644;6.184;2023-03-01T12:52:52;17.80;47.30
15900;DHT22;8048;50.644;6.184;2023-03-01T12:55:36;17.90;49.00
15900;DHT22;8048;50.644;6.184;2023-03-01T12:58:07;17.90;48.60
15900;DHT22;8048;50.644;6.184;2023-03-01T13:03:54;17.50;49.80
15900;DHT22;8048;50.644;6.184;2023-03-01T13:17:51;18.00;48.70
15900;DHT22;8048;50.644;6.184;2023-03-01T13:20:21;17.70;47.40
15900;DHT22;8048;50.644;6.184;2023-03-01T13:22:47;17.60;47.60
15900;DHT22;8048;50.644;6.184;2023-03-01T13:25:18;17.20;48.20
15900;DHT22;8048;50.644;6.184;2023-03-01T13:27:45;17.10;45.40
15900;DHT22;8048;50.644;6.184;2023-03-01T13:35:53;16.50;48.30
15900;DHT22;8048;50.644;6.184;2023-03-01T13:38:48;16.40;49.70
15900;DHT22;8048;50.644;6.184;2023-03-01T13:41:16;16.60;49.10
15900;DHT22;8048;50.644;6.184;2023-03-01T13:43:44;16.80;49.60
15900;DHT22;8048;50.644;6.184;2023-03-01T13:46:20;16.80;46.80
15900;DHT22;8048;50.644;6.184;2023-03-01T13:48:50;16.80;48.80
15900;DHT22;8048;50.644;6.184;2023-03-01T13:51:23;17.20;47.30
15900;DHT22;8048;50.644;6.184;2023-03-01T13:53:49;17.10;48.80
15900;DHT22;8048;50.644;6.184;2023-03-01T13:56:23;17.20;46.80
15900;DHT22;8048;50.644;6.184;2023-03-01T13:59:05;17.10;51.20
15900;DHT22;8048;50.644;6.184;2023-03-01T14:01:35;17.10;48.10
15900;DHT22;8048;50.644;6.184;2023-03-01T14:04:03;17.00;48.40
15900;DHT22;8048;50.644;6.184;2023-03-01T14:06:33;17.10;48.80
15900;DHT22;8048;50.644;6.184;2023-03-01T14:09:23;17.20;49.50
15900;DHT22;8048;50.644;6.184;2023-03-01T14:19:34;17.00;48.00
15900;DHT22;8048;50.644;6.184;2023-03-01T14:24:40;16.10;47.20
15900;DHT22;8048;50.644;6.184;2023-03-01T14:27:11;15.90;47.40
15900;DHT22;8048;50.644;6.184;2023-03-01T14:29:39;15.60;49.00
15900;DHT22;8048;50.644;6.184;2023-03-01T14:32:11;16.00;49.60
15900;DHT22;8048;50.644;6.184;2023-03-01T14:34:43;15.70;47.00
15900;DHT22;8048;50.644;6.184;2023-03-01T14:37:11;15.70;48.10
15900;DHT22;8048;50.644;6.184;2023-03-01T14:39:42;15.70;47.80
15900;DHT22;8048;50.644;6.184;2023-03-01T14:42:08;15.50;46.70
15900;DHT22;8048;50.644;6.184;2023-03-01T14:44:34;15.60;48.70
15900;DHT22;8048;50.644;6.184;2023-03-01T14:47:03;15.70;46.60
15900;DHT22;8048;50.644;6.184;2023-03-01T14:49:30;15.50;48.00
15900;DHT22;8048;50.644;6.184;2023-03-01T14:52:01;15.40;48.50
15900;DHT22;8048;50.644;6.184;2023-03-01T14:54:35;15.40;48.00
15900;DHT22;8048;50.644;6.184;2023-03-01T14:57:03;15.50;51.00
15900;DHT22;8048;50.644;6.184;2023-03-01T14:59:28;15.50;50.10
15900;DHT22;8048;50.644;6.184;2023-03-01T15:01:56;15.60;48.70
15900;DHT22;8048;50.644;6.184;2023-03-01T15:04:23;15.40;45.50
15900;DHT22;8048;50.644;6.184;2023-03-01T15:06:53;15.20;47.70
15900;DHT22;8048;50.644;6.184;2023-03-01T15:09:20;14.90;47.30
15900;DHT22;8048;50.644;6.184;2023-03-01T15:11:46;14.80;46.90
15900;DHT22;8048;50.644;6.184;2023-03-01T15:14:43;14.90;46.00
15900;DHT22;8048;50.644;6.184;2023-03-01T15:19:46;14.50;47.90
15900;DHT22;8048;50.644;6.184;2023-03-01T15:22:15;14.60;47.40
15900;DHT22;8048;50.644;6.184;2023-03-01T15:24:41;14.00;45.80
15900;DHT22;8048;50.644;6.184;2023-03-01T15:27:16;13.80;45.30
15900;DHT22;8048;50.644;6.184;2023-03-01T15:29:49;13.70;46.50
15900;DHT22;8048;50.644;6.184;2023-03-01T15:32:30;13.70;46.90
15900;DHT22;8048;50.644;6.184;2023-03-01T15:35:00;13.70;47.00
15900;DHT22;8048;50.644;6.184;2023-03-01T15:37:53;13.40;46.10
15900;DHT22;8048;50.644;6.184;2023-03-01T15:40:25;13.30;47.70
15900;DHT22;8048;50.644;6.184;2023-03-01T15:42:57;13.20;46.60
15900;DHT22;8048;50.644;6.184;2023-03-01T15:45:25;12.80;46.00
15900;DHT22;8048;50.644;6.184;2023-03-01T15:47:55;12.40;47.20
15900;DHT22;8048;50.644;6.184;2023-03-01T15:50:28;12.20;50.00
15900;DHT22;8048;50.644;6.184;2023-03-01T15:52:55;12.00;48.50
15900;DHT22;8048;50.644;6.184;2023-03-01T15:55:29;11.90;47.50
15900;DHT22;8048;50.644;6.184;2023-03-01T15:58:19;11.70;48.90
15900;DHT22;8048;50.644;6.184;2023-03-01T16:00:46;11.60;49.10
15900;DHT22;8048;50.644;6.184;2023-03-01T16:03:14;11.40;49.70
15900;DHT22;8048;50.644;6.184;2023-03-01T16:05:50;11.30;48.40
15900;DHT22;8048;50.644;6.184;2023-03-01T16:08:17;11.00;47.80
15900;DHT22;8048;50.644;6.184;2023-03-01T16:10:43;10.70;48.80
15900;DHT22;8048;50.644;6.184;2023-03-01T16:13:09;10.70;49.50
15900;DHT22;8048;50.644;6.184;2023-03-01T16:15:35;10.70;49.80
15900;DHT22;8048;50.644;6.184;2023-03-01T16:18:01;10.50;49.60
15900;DHT22;8048;50.644;6.184;2023-03-01T16:20:28;10.30;49.30
15900;DHT22;8048;50.644;6.184;2023-03-01T16:22:57;9.90;51.30
15900;DHT22;8048;50.644;6.184;2023-03-01T16:25:23;9.80;50.80
15900;DHT22;8048;50.644;6.184;2023-03-01T16:27:50;9.60;51.90
15900;DHT22;8048;50.644;6.184;2023-03-01T16:30:19;9.50;51.10
15900;DHT22;8048;50.644;6.184;2023-03-01T16:32:45;9.40;53.10
15900;DHT22;8048;50.644;6.184;2023-03-01T16:35:13;9.40;51.70
15900;DHT22;8048;50.644;6.184;2023-03-01T16:37:40;9.20;52.10
15900;DHT22;8048;50.644;6.184;2023-03-01T16:40:11;9.10;51.90
15900;DHT22;8048;50.644;6.184;2023-03-01T16:42:41;9.10;52.00
15900;DHT22;8048;50.644;6.184;2023-03-01T16:45:08;8.90;52.70
15900;DHT22;8048;50.644;6.184;2023-03-01T16:47:34;8.80;53.20
15900;DHT22;8048;50.644;6.184;2023-03-01T16:49:59;8.70;51.90
15900;DHT22;8048;50.644;6.184;2023-03-01T16:52:25;8.40;53.00
15900;DHT22;8048;50.644;6.184;2023-03-01T16:54:51;8.30;53.80
15900;DHT22;8048;50.644;6.184;2023-03-01T16:57:17;8.20;53.10
15900;DHT22;8048;50.644;6.184;2023-03-01T16:59:42;8.10;53.70
15900;DHT22;8048;50.644;6.184;2023-03-01T17:02:11;8.00;53.80
15900;DHT22;8048;50.644;6.184;2023-03-01T17:04:38;7.80;54.40
15900;DHT22;8048;50.644;6.184;2023-03-01T17:07:04;7.80;54.50
15900;DHT22;8048;50.644;6.184;2023-03-01T17:09:34;7.70;54.50
15900;DHT22;8048;50.644;6.184;2023-03-01T17:11:59;7.60;54.30
15900;DHT22;8048;50.644;6.184;2023-03-01T17:14:25;7.50;55.30
15900;DHT22;8048;50.644;6.184;2023-03-01T17:16:50;7.40;55.70
15900;DHT22;8048;50.644;6.184;2023-03-01T17:19:18;7.30;55.90
15900;DHT22;8048;50.644;6.184;2023-03-01T17:21:44;7.20;56.40
15900;DHT22;8048;50.644;6.184;2023-03-01T17:24:10;7.10;56.30
15900;DHT22;8048;50.644;6.184;2023-03-01T17:26:36;7.00;56.00
15900;DHT22;8048;50.644;6.184;2023-03-01T17:29:02;7.00;57.40
15900;DHT22;8048;50.644;6.184;2023-03-01T17:31:29;6.90;57.10
15900;DHT22;8048;50.644;6.184;2023-03-01T17:33:55;6.60;56.60
15900;DHT22;8048;50.644;6.184;2023-03-01T17:36:21;6.50;57.80
15900;DHT22;8048;50.644;6.184;2023-03-01T17:38:47;6.30;58.40
15900;DHT22;8048;50.644;6.184;2023-03-01T17:41:13;6.20;59.00
15900;DHT22;8048;50.644;6.184;2023-03-01T17:43:42;6.10;58.40
15900;DHT22;8048;50.644;6.184;2023-03-01T17:46:07;6.00;58.70
15900;DHT22;8048;50.644;6.184;2023-03-01T17:48:33;6.10;59.50
15900;DHT22;8048;50.644;6.184;2023-03-01T17:50:59;5.90;60.30
15900;DHT22;8048;50.644;6.184;2023-03-01T17:53:25;5.90;61.40